sensor_id;sensor_type;location;lat;lon;timestamp;temperature;humidity
52030;DHT22;38043;53.224;6.580;2022-08-18T00:01:20;18.40;99.90
52030;DHT22;38043;53.224;6.580;2022-08-18T00:03:48;18.40;99.90
52030;DHT22;38043;53.224;6.580;2022-08-18T00:06:17;18.30;99.90
52030;DHT22;38043;53.224;6.580;2022-08-18T00:08:43;18.30;99.90
52030;DHT22;38043;53.224;6.580;2022-08-18T00:11:09;18.30;99.90
52030;DHT22;38043;53.224;6.580;2022-08-18T00:13:35;18.30;99.90
52030;DHT22;38043;53.224;6.580;2022-08-18T00:16:01;18.20;99.90
52030;DHT22;38043;53.224;6.580;2022-08-18T00:18:27;18.20;99.90
52030;DHT22;38043;53.224;6.580;2022-08-18T00:20:52;18.10;99.90
52030;DHT22;38043;53.224;6.580;2022-08-18T00:23:18;18.10;99.90
52030;DHT22;38043;53.224;6.580;2022-08-18T00:25:44;18.10;99.90
52030;DHT22;38043;53.224;6.580;2022-08-18T00:28:10;18.10;99.90
52030;DHT22;38043;53.224;6.580;2022-08-18T00:30:38;18.10;99.90
52030;DHT22;38043;53.224;6.580;2022-08-18T00:33:04;18.10;99.90
52030;DHT22;38043;53.224;6.580;2022-08-18T00:35:37;18.00;99.90
52030;DHT22;38043;53.224;6.580;2022-08-18T00:38:05;18.00;99.90
52030;DHT22;38043;53.224;6.580;2022-08-18T00:40:38;18.00;99.90
52030;DHT22;38043;53.224;6.580;2022-08-18T00:43:06;18.00;99.90
52030;DHT22;38043;53.224;6.580;2022-08-18T00:45:33;18.00;99.90
52030;DHT22;38043;53.224;6.580;2022-08-18T00:48:04;17.90;99.90
52030;DHT22;38043;53.224;6.580;2022-08-18T00:50:39;17.90;99.90
52030;DHT22;38043;53.224;6.580;2022-08-18T00:53:12;17.90;99.90
52030;DHT22;38043;53.224;6.580;2022-08-18T00:55:40;18.00;99.90
52030;DHT22;38043;53.224;6.580;2022-08-18T00:58:10;18.00;99.90
52030;DHT22;38043;53.224;6.580;2022-08-18T01:00:37;17.90;99.90
52030;DHT22;38043;53.224;6.580;2022-08-18T01:03:08;18.00;99.90
52030;DHT22;38043;53.224;6.580;2022-08-18T01:05:50;18.00;99.90
52030;DHT22;38043;53.224;6.580;2022-08-18T01:08:17;17.90;99.90
52030;DHT22;38043;53.224;6.580;2022-08-18T01:10:43;18.00;99.90
52030;DHT22;38043;53.224;6.580;2022-08-18T01:13:09;18.00;99.90
52030;DHT22;38043;53.224;6.580;2022-08-18T01:15:36;18.00;99.90
52030;DHT22;38043;53.224;6.580;2022-08-18T01:18:06;18.00;99.90
52030;DHT22;38043;53.224;6.580;2022-08-18T01:21:15;17.90;99.90
52030;DHT22;38043;53.224;6.580;2022-08-18T01:24:06;18.00;99.90
52030;DHT22;38043;53.224;6.580;2022-08-18T01:26:35;18.00;99.90
52030;DHT22;38043;53.224;6.580;2022-08-18T01:29:05;18.00;99.90
52030;DHT22;38043;53.224;6.580;2022-08-18T01:31:43;18.00;99.90
52030;DHT22;38043;53.224;6.580;2022-08-18T01:34:14;18.10;99.90
52030;DHT22;38043;53.224;6.580;2022-08-18T01:36:41;18.10;99.90
52030;DHT22;38043;53.224;6.580;2022-08-18T01:39:09;18.10;99.90
52030;DHT22;38043;53.224;6.580;2022-08-18T01:41:36;18.20;99.90
52030;DHT22;38043;53.224;6.580;2022-08-18T01:44:03;18.20;99.90
52030;DHT22;38043;53.224;6.580;2022-08-18T01:46:32;18.20;99.90
52030;DHT22;38043;53.224;6.580;2022-08-18T01:48:59;18.20;99.90
52030;DHT22;38043;53.224;6.580;2022-08-18T01:51:28;18.20;99.90
52030;DHT22;38043;53.224;6.580;2022-08-18T01:53:55;18.20;99.90
52030;DHT22;38043;53.224;6.580;2022-08-18T01:56:21;18.20;99.90
52030;DHT22;38043;53.224;6.580;2022-08-18T01:58:47;18.20;99.90
52030;DHT22;38043;53.224;6.580;2022-08-18T02:01:15;18.20;99.90
52030;DHT22;38043;53.224;6.580;2022-08-18T02:03:46;18.20;99.90
52030;DHT22;38043;53.224;6.580;2022-08-18T02:06:15;18.20;99.90
52030;DHT22;38043;53.224;6.580;2022-08-18T02:08:43;18.20;99.90
52030;DHT22;38043;53.224;6.580;2022-08-18T02:11:09;18.20;99.90
52030;DHT22;38043;53.224;6.580;2022-08-18T02:13:35;18.30;99.90
52030;DHT22;38043;53.224;6.580;2022-08-18T02:16:01;18.30;99.90
52030;DHT22;38043;53.224;6.580;2022-08-18T02:18:30;18.30;99.90
52030;DHT22;38043;53.224;6.580;2022-08-18T02:20:58;18.40;99.90
52030;DHT22;38043;53.224;6.580;2022-08-18T02:23:29;18.40;99.90
52030;DHT22;38043;53.224;6.580;2022-08-18T02:25:55;18.40;99.90
52030;DHT22;38043;53.224;6.580;2022-08-18T02:28:21;18.30;99.90
52030;DHT22;38043;53.224;6.580;2022-08-18T02:30:46;18.40;99.90
52030;DHT22;38043;53.224;6.580;2022-08-18T02:33:12;18.30;99.90
52030;DHT22;38043;53.224;6.580;2022-08-18T02:35:38;18.30;99.90
52030;DHT22;38043;53.224;6.580;2022-08-18T02:38:06;18.30;99.90
52030;DHT22;38043;53.224;6.580;2022-08-18T02:40:33;18.30;99.90
52030;DHT22;38043;53.224;6.580;2022-08-18T02:43:09;18.30;99.90
52030;DHT22;38043;53.224;6.580;2022-08-18T02:45:38;18.30;99.90
52030;DHT22;38043;53.224;6.580;2022-08-18T02:48:05;18.30;99.90
52030;DHT22;38043;53.224;6.580;2022-08-18T02:50:31;18.30;99.90
52030;DHT22;38043;53.224;6.580;2022-08-18T02:52:57;18.30;99.90
52030;DHT22;38043;53.224;6.580;2022-08-18T02:55:25;18.30;99.90
52030;DHT22;38043;53.224;6.580;2022-08-18T02:57:53;18.30;99.90
52030;DHT22;38043;53.224;6.580;2022-08-18T03:00:19;18.30;99.90
52030;DHT22;38043;53.224;6.580;2022-08-18T03:02:49;18.40;99.90
52030;DHT22;38043;53.224;6.580;2022-08-18T03:05:17;18.30;99.90
52030;DHT22;38043;53.224;6.580;2022-08-18T03:07:43;18.30;99.90
52030;DHT22;38043;53.224;6.580;2022-08-18T03:10:10;18.30;99.90
52030;DHT22;38043;53.224;6.580;2022-08-18T03:12:36;18.30;99.90
52030;DHT22;38043;53.224;6.580;2022-08-18T03:15:02;18.40;99.90
52030;DHT22;38043;53.224;6.580;2022-08-18T03:17:28;18.30;99.90
52030;DHT22;38043;53.224;6.580;2022-08-18T03:19:54;18.30;99.90
52030;DHT22;38043;53.224;6.580;2022-08-18T03:22:19;18.40;99.90
52030;DHT22;38043;53.224;6.580;2022-08-18T03:24:45;18.40;99.90
52030;DHT22;38043;53.224;6.580;2022-08-18T03:27:11;18.40;99.90
52030;DHT22;38043;53.224;6.580;2022-08-18T03:29:37;18.40;99.90
52030;DHT22;38043;53.224;6.580;2022-08-18T03:32:05;18.40;99.90
52030;DHT22;38043;53.224;6.580;2022-08-18T03:34:31;18.40;99.90
52030;DHT22;38043;53.224;6.580;2022-08-18T03:36:57;18.40;99.90
52030;DHT22;38043;53.224;6.580;2022-08-18T03:39:24;18.40;99.90
52030;DHT22;38043;53.224;6.580;2022-08-18T03:41:53;18.40;99.90
52030;DHT22;38043;53.224;6.580;2022-08-18T03:44:20;18.40;99.90
52030;DHT22;38043;53.224;6.580;2022-08-18T03:46:45;18.40;99.90
52030;DHT22;38043;53.224;6.580;2022-08-18T03:49:12;18.40;99.90
52030;DHT22;38043;53.224;6.580;2022-08-18T03:51:41;18.40;99.90
52030;DHT22;38043;53.224;6.580;2022-08-18T03:54:14;18.40;99.90
52030;DHT22;38043;53.224;6.580;2022-08-18T03:56:41;18.40;99.90
52030;DHT22;38043;53.224;6.580;2022-08-18T03:59:18;18.40;99.90
52030;DHT22;38043;53.224;6.580;2022-08-18T04:01:46;18.40;99.90
52030;DHT22;38043;53.224;6.580;2022-08-18T04:04:18;18.50;99.90
52030;DHT22;38043;53.224;6.580;2022-08-18T04:06:56;18.40;99.90
52030;DHT22;38043;53.224;6.580;2022-08-18T04:09:24;18.50;99.90
52030;DHT22;38043;53.224;6.580;2022-08-18T04:11:50;18.50;99.90
52030;DHT22;38043;53.224;6.580;2022-08-18T04:14:18;18.50;99.90
52030;DHT22;38043;53.224;6.580;2022-08-18T04:16:45;18.40;99.90
52030;DHT22;38043;53.224;6.580;2022-08-18T04:19:11;18.50;99.90
52030;DHT22;38043;53.224;6.580;2022-08-18T04:21:39;18.50;99.90
52030;DHT22;38043;53.224;6.580;2022-08-18T04:24:07;18.50;99.90
52030;DHT22;38043;53.224;6.580;2022-08-18T04:26:40;18.40;99.90
52030;DHT22;38043;53.224;6.580;2022-08-18T04:29:08;18.50;99.90
52030;DHT22;38043;53.224;6.580;2022-08-18T04:31:34;18.50;99.90
52030;DHT22;38043;53.224;6.580;2022-08-18T04:34:01;18.50;99.90
52030;DHT22;38043;53.224;6.580;2022-08-18T04:36:29;18.50;99.90
52030;DHT22;38043;53.224;6.580;2022-08-18T04:38:56;18.50;99.90
52030;DHT22;38043;53.224;6.580;2022-08-18T04:41:23;18.50;99.90
52030;DHT22;38043;53.224;6.580;2022-08-18T04:43:56;18.50;99.90
52030;DHT22;38043;53.224;6.580;2022-08-18T04:46:23;18.50;99.90
52030;DHT22;38043;53.224;6.580;2022-08-18T04:48:48;18.50;99.90
52030;DHT22;38043;53.224;6.580;2022-08-18T04:51:17;18.50;99.90
52030;DHT22;38043;53.224;6.580;2022-08-18T04:53:44;18.50;99.90
52030;DHT22;38043;53.224;6.580;2022-08-18T04:56:20;18.50;99.90
52030;DHT22;38043;53.224;6.580;2022-08-18T04:58:55;18.50;99.90
52030;DHT22;38043;53.224;6.580;2022-08-18T05:01:23;18.50;99.90
52030;DHT22;38043;53.224;6.580;2022-08-18T05:03:50;18.50;99.90
52030;DHT22;38043;53.224;6.580;2022-08-18T05:06:17;18.60;99.90
52030;DHT22;38043;53.224;6.580;2022-08-18T05:08:43;18.60;99.90
52030;DHT22;38043;53.224;6.580;2022-08-18T05:11:09;18.50;99.90
52030;DHT22;38043;53.224;6.580;2022-08-18T05:13:34;18.60;99.90
52030;DHT22;38043;53.224;6.580;2022-08-18T05:16:00;18.60;99.90
52030;DHT22;38043;53.224;6.580;2022-08-18T05:18:30;18.70;99.90
52030;DHT22;38043;53.224;6.580;2022-08-18T05:20:57;18.50;99.90
52030;DHT22;38043;53.224;6.580;2022-08-18T05:23:26;18.50;99.90
52030;DHT22;38043;53.224;6.580;2022-08-18T05:26:01;18.50;99.90
52030;DHT22;38043;53.224;6.580;2022-08-18T05:28:31;18.50;99.90
52030;DHT22;38043;53.224;6.580;2022-08-18T05:30:56;18.50;99.90
52030;DHT22;38043;53.224;6.580;2022-08-18T05:33:23;18.50;99.90
52030;DHT22;38043;53.224;6.580;2022-08-18T05:36:01;18.50;99.90
52030;DHT22;38043;53.224;6.580;2022-08-18T05:38:47;18.60;99.90
52030;DHT22;38043;53.224;6.580;2022-08-18T05:41:27;18.50;99.90
52030;DHT22;38043;53.224;6.580;2022-08-18T05:43:56;18.50;99.90
52030;DHT22;38043;53.224;6.580;2022-08-18T05:46:31;18.60;99.90
52030;DHT22;38043;53.224;6.580;2022-08-18T05:48:59;18.60;99.90
52030;DHT22;38043;53.224;6.580;2022-08-18T05:51:42;18.60;99.90
52030;DHT22;38043;53.224;6.580;2022-08-18T05:54:10;18.60;99.90
52030;DHT22;38043;53.224;6.580;2022-08-18T05:57:02;18.70;99.90
52030;DHT22;38043;53.224;6.580;2022-08-18T05:59:36;18.70;99.90
52030;DHT22;38043;53.224;6.580;2022-08-18T06:02:15;18.70;99.90
52030;DHT22;38043;53.224;6.580;2022-08-18T06:04:52;18.80;99.90
52030;DHT22;38043;53.224;6.580;2022-08-18T06:07:35;19.00;99.90
52030;DHT22;38043;53.224;6.580;2022-08-18T06:10:03;18.90;99.90
52030;DHT22;38043;53.224;6.580;2022-08-18T06:23:06;19.10;99.90
52030;DHT22;38043;53.224;6.580;2022-08-18T06:28:14;19.10;99.90
52030;DHT22;38043;53.224;6.580;2022-08-18T06:33:15;19.00;99.90
52030;DHT22;38043;53.224;6.580;2022-08-18T06:35:49;19.10;99.90
52030;DHT22;38043;53.224;6.580;2022-08-18T06:41:18;19.00;99.90
52030;DHT22;38043;53.224;6.580;2022-08-18T06:44:11;19.00;99.90
52030;DHT22;38043;53.224;6.580;2022-08-18T06:46:45;19.00;99.90
52030;DHT22;38043;53.224;6.580;2022-08-18T06:49:23;19.00;99.90
52030;DHT22;38043;53.224;6.580;2022-08-18T06:51:51;19.00;99.90
52030;DHT22;38043;53.224;6.580;2022-08-18T06:56:51;19.00;99.90
52030;DHT22;38043;53.224;6.580;2022-08-18T07:01:49;19.00;99.90
52030;DHT22;38043;53.224;6.580;2022-08-18T07:04:35;19.00;99.90
52030;DHT22;38043;53.224;6.580;2022-08-18T07:07:35;18.90;99.90
52030;DHT22;38043;53.224;6.580;2022-08-18T07:10:03;18.90;99.90
52030;DHT22;38043;53.224;6.580;2022-08-18T07:12:29;18.80;99.90
52030;DHT22;38043;53.224;6.580;2022-08-18T07:15:00;18.80;99.90
52030;DHT22;38043;53.224;6.580;2022-08-18T07:17:32;18.80;99.90
52030;DHT22;38043;53.224;6.580;2022-08-18T07:20:18;18.70;99.90
52030;DHT22;38043;53.224;6.580;2022-08-18T07:22:59;18.70;99.90
52030;DHT22;38043;53.224;6.580;2022-08-18T07:25:36;18.70;99.90
52030;DHT22;38043;53.224;6.580;2022-08-18T07:28:02;18.70;99.90
52030;DHT22;38043;53.224;6.580;2022-08-18T07:30:34;18.70;99.90
52030;DHT22;38043;53.224;6.580;2022-08-18T07:36:00;18.70;99.90
52030;DHT22;38043;53.224;6.580;2022-08-18T07:38:32;18.70;99.90
52030;DHT22;38043;53.224;6.580;2022-08-18T07:41:14;18.70;99.90
52030;DHT22;38043;53.224;6.580;2022-08-18T07:44:16;18.80;99.90
52030;DHT22;38043;53.224;6.580;2022-08-18T07:49:21;18.80;99.90
52030;DHT22;38043;53.224;6.580;2022-08-18T07:55:02;18.90;99.90
52030;DHT22;38043;53.224;6.580;2022-08-18T08:05:34;19.00;99.90
52030;DHT22;38043;53.224;6.580;2022-08-18T08:11:15;19.10;99.90
52030;DHT22;38043;53.224;6.580;2022-08-18T08:13:55;19.10;99.90
52030;DHT22;38043;53.224;6.580;2022-08-18T08:16:42;19.20;99.90
52030;DHT22;38043;53.224;6.580;2022-08-18T08:24:43;19.10;99.90
52030;DHT22;38043;53.224;6.580;2022-08-18T08:27:27;19.10;99.90
52030;DHT22;38043;53.224;6.580;2022-08-18T08:30:03;19.20;99.90
52030;DHT22;38043;53.224;6.580;2022-08-18T08:32:36;19.10;99.90
52030;DHT22;38043;53.224;6.580;2022-08-18T08:35:14;19.20;99.90
52030;DHT22;38043;53.224;6.580;2022-08-18T08:37:47;19.20;99.90
52030;DHT22;38043;53.224;6.580;2022-08-18T08:40:19;19.20;99.90
52030;DHT22;38043;53.224;6.580;2022-08-18T08:45:25;19.20;99.90
52030;DHT22;38043;53.224;6.580;2022-08-18T08:48:22;19.30;99.90
52030;DHT22;38043;53.224;6.580;2022-08-18T08:51:00;19.30;99.90
52030;DHT22;38043;53.224;6.580;2022-08-18T08:53:50;19.30;99.90
52030;DHT22;38043;53.224;6.580;2022-08-18T08:56:20;19.30;99.90
52030;DHT22;38043;53.224;6.580;2022-08-18T08:59:00;19.30;99.90
52030;DHT22;38043;53.224;6.580;2022-08-18T09:07:11;19.30;99.90
52030;DHT22;38043;53.224;6.580;2022-08-18T09:18:10;19.50;99.90
52030;DHT22;38043;53.224;6.580;2022-08-18T09:21:36;19.50;99.90
52030;DHT22;38043;53.224;6.580;2022-08-18T09:23:50;19.50;99.90
52030;DHT22;38043;53.224;6.580;2022-08-18T09:26:51;19.50;99.90
52030;DHT22;38043;53.224;6.580;2022-08-18T09:29:26;19.40;99.90
52030;DHT22;38043;53.224;6.580;2022-08-18T09:37:49;19.50;99.90
52030;DHT22;38043;53.224;6.580;2022-08-18T09:40:51;19.60;99.90
52030;DHT22;38043;53.224;6.580;2022-08-18T09:43:56;19.80;99.90
52030;DHT22;38043;53.224;6.580;2022-08-18T09:51:59;20.40;99.90
52030;DHT22;38043;53.224;6.580;2022-08-18T09:54:32;20.50;99.90
52030;DHT22;38043;53.224;6.580;2022-08-18T09:57:16;20.50;99.90
52030;DHT22;38043;53.224;6.580;2022-08-18T10:07:46;20.80;99.90
52030;DHT22;38043;53.224;6.580;2022-08-18T10:10:20;21.00;99.90
52030;DHT22;38043;53.224;6.580;2022-08-18T10:23:48;20.70;99.90
52030;DHT22;38043;53.224;6.580;2022-08-18T10:31:20;20.40;99.90
52030;DHT22;38043;53.224;6.580;2022-08-18T10:34:07;20.30;99.90
52030;DHT22;38043;53.224;6.580;2022-08-18T10:40:03;20.30;99.90
52030;DHT22;38043;53.224;6.580;2022-08-18T10:42:19;20.30;99.90
52030;DHT22;38043;53.224;6.580;2022-08-18T10:44:48;20.20;99.90
52030;DHT22;38043;53.224;6.580;2022-08-18T10:47:25;20.20;99.90
52030;DHT22;38043;53.224;6.580;2022-08-18T10:49:52;20.20;99.90
52030;DHT22;38043;53.224;6.580;2022-08-18T10:55:19;20.10;99.90
52030;DHT22;38043;53.224;6.580;2022-08-18T10:58:17;20.00;99.90
52030;DHT22;38043;53.224;6.580;2022-08-18T11:04:08;20.10;99.90
52030;DHT22;38043;53.224;6.580;2022-08-18T11:06:43;20.00;99.90
52030;DHT22;38043;53.224;6.580;2022-08-18T11:09:11;20.00;99.90
52030;DHT22;38043;53.224;6.580;2022-08-18T11:11:40;20.00;99.90
52030;DHT22;38043;53.224;6.580;2022-08-18T11:19:45;20.00;99.90
52030;DHT22;38043;53.224;6.580;2022-08-18T11:22:34;20.00;99.90
52030;DHT22;38043;53.224;6.580;2022-08-18T11:25:02;20.10;99.90
52030;DHT22;38043;53.224;6.580;2022-08-18T11:27:32;20.20;99.90
52030;DHT22;38043;53.224;6.580;2022-08-18T11:30:02;20.30;99.90
52030;DHT22;38043;53.224;6.580;2022-08-18T11:32:37;20.20;99.90
52030;DHT22;38043;53.224;6.580;2022-08-18T11:35:05;20.20;99.90
52030;DHT22;38043;53.224;6.580;2022-08-18T11:43:00;20.50;99.90
52030;DHT22;38043;53.224;6.580;2022-08-18T11:45:34;20.60;99.90
52030;DHT22;38043;53.224;6.580;2022-08-18T11:53:39;21.10;99.90
52030;DHT22;38043;53.224;6.580;2022-08-18T12:01:36;21.90;99.90
52030;DHT22;38043;53.224;6.580;2022-08-18T12:07:25;21.70;99.90
52030;DHT22;38043;53.224;6.580;2022-08-18T12:14:33;21.60;99.90
52030;DHT22;38043;53.224;6.580;2022-08-18T12:17:14;21.50;99.90
52030;DHT22;38043;53.224;6.580;2022-08-18T12:19:40;21.30;99.90
52030;DHT22;38043;53.224;6.580;2022-08-18T12:22:16;21.30;99.90
52030;DHT22;38043;53.224;6.580;2022-08-18T12:24:43;21.20;99.90
52030;DHT22;38043;53.224;6.580;2022-08-18T12:27:13;21.50;99.90
52030;DHT22;38043;53.224;6.580;2022-08-18T12:29:40;21.70;99.90
52030;DHT22;38043;53.224;6.580;2022-08-18T12:32:06;21.70;99.90
52030;DHT22;38043;53.224;6.580;2022-08-18T12:34:32;21.60;99.90
52030;DHT22;38043;53.224;6.580;2022-08-18T12:36:58;21.50;99.90
52030;DHT22;38043;53.224;6.580;2022-08-18T12:39:28;21.40;99.90
52030;DHT22;38043;53.224;6.580;2022-08-18T12:41:55;21.50;99.90
52030;DHT22;38043;53.224;6.580;2022-08-18T12:44:21;21.70;99.90
52030;DHT22;38043;53.224;6.580;2022-08-18T12:46:47;22.10;99.90
52030;DHT22;38043;53.224;6.580;2022-08-18T12:49:15;22.40;99.90
52030;DHT22;38043;53.224;6.580;2022-08-18T12:51:42;22.60;99.90
52030;DHT22;38043;53.224;6.580;2022-08-18T12:54:08;22.60;99.90
52030;DHT22;38043;53.224;6.580;2022-08-18T12:56:34;22.40;99.90
52030;DHT22;38043;53.224;6.580;2022-08-18T12:59:01;22.50;99.90
52030;DHT22;38043;53.224;6.580;2022-08-18T13:01:27;22.70;99.90
52030;DHT22;38043;53.224;6.580;2022-08-18T13:03:54;23.00;99.90
52030;DHT22;38043;53.224;6.580;2022-08-18T13:06:23;23.30;99.90
52030;DHT22;38043;53.224;6.580;2022-08-18T13:08:50;23.70;99.90
52030;DHT22;38043;53.224;6.580;2022-08-18T13:11:17;24.00;99.90
52030;DHT22;38043;53.224;6.580;2022-08-18T13:13:43;23.60;99.90
52030;DHT22;38043;53.224;6.580;2022-08-18T13:16:11;23.30;99.90
52030;DHT22;38043;53.224;6.580;2022-08-18T13:18:39;23.00;99.90
52030;DHT22;38043;53.224;6.580;2022-08-18T13:21:10;22.90;99.90
52030;DHT22;38043;53.224;6.580;2022-08-18T13:23:37;23.00;99.90
52030;DHT22;38043;53.224;6.580;2022-08-18T13:26:05;23.10;99.90
52030;DHT22;38043;53.224;6.580;2022-08-18T13:28:32;23.40;99.90
52030;DHT22;38043;53.224;6.580;2022-08-18T13:30:59;23.50;99.90
52030;DHT22;38043;53.224;6.580;2022-08-18T13:33:25;23.30;99.90
52030;DHT22;38043;53.224;6.580;2022-08-18T13:35:51;23.20;99.90
52030;DHT22;38043;53.224;6.580;2022-08-18T13:38:17;23.10;99.90
52030;DHT22;38043;53.224;6.580;2022-08-18T13:40:49;22.90;99.90
52030;DHT22;38043;53.224;6.580;2022-08-18T13:43:17;23.10;99.90
52030;DHT22;38043;53.224;6.580;2022-08-18T13:45:43;23.60;99.90
52030;DHT22;38043;53.224;6.580;2022-08-18T13:48:11;24.10;99.90
52030;DHT22;38043;53.224;6.580;2022-08-18T13:50:37;24.60;99.90
52030;DHT22;38043;53.224;6.580;2022-08-18T13:53:15;24.80;99.90
52030;DHT22;38043;53.224;6.580;2022-08-18T13:55:47;25.10;99.90
52030;DHT22;38043;53.224;6.580;2022-08-18T13:58:13;25.40;98.80
52030;DHT22;38043;53.224;6.580;2022-08-18T14:00:40;25.50;98.40
52030;DHT22;38043;53.224;6.580;2022-08-18T14:03:07;25.50;98.90
52030;DHT22;38043;53.224;6.580;2022-08-18T14:05:33;25.60;98.40
52030;DHT22;38043;53.224;6.580;2022-08-18T14:08:00;25.40;99.90
52030;DHT22;38043;53.224;6.580;2022-08-18T14:10:27;25.10;97.90
52030;DHT22;38043;53.224;6.580;2022-08-18T14:12:54;24.40;98.80
52030;DHT22;38043;53.224;6.580;2022-08-18T14:15:21;24.40;99.20
52030;DHT22;38043;53.224;6.580;2022-08-18T14:17:47;24.80;99.50
52030;DHT22;38043;53.224;6.580;2022-08-18T14:20:13;25.20;98.50
52030;DHT22;38043;53.224;6.580;2022-08-18T14:22:59;25.30;98.90
52030;DHT22;38043;53.224;6.580;2022-08-18T14:25:44;25.20;99.10
52030;DHT22;38043;53.224;6.580;2022-08-18T14:28:30;25.20;98.70
52030;DHT22;38043;53.224;6.580;2022-08-18T14:30:58;25.70;97.60
52030;DHT22;38043;53.224;6.580;2022-08-18T14:33:26;25.70;98.10
52030;DHT22;38043;53.224;6.580;2022-08-18T14:35:53;25.10;98.70
52030;DHT22;38043;53.224;6.580;2022-08-18T14:38:19;24.90;98.50
52030;DHT22;38043;53.224;6.580;2022-08-18T14:40:47;24.80;98.40
52030;DHT22;38043;53.224;6.580;2022-08-18T14:43:15;24.40;99.00
52030;DHT22;38043;53.224;6.580;2022-08-18T14:45:42;24.20;99.60
52030;DHT22;38043;53.224;6.580;2022-08-18T14:48:17;24.00;99.50
52030;DHT22;38043;53.224;6.580;2022-08-18T14:50:46;23.70;99.90
52030;DHT22;38043;53.224;6.580;2022-08-18T14:53:16;23.60;99.90
52030;DHT22;38043;53.224;6.580;2022-08-18T14:55:44;23.60;99.90
52030;DHT22;38043;53.224;6.580;2022-08-18T14:58:12;23.40;99.90
52030;DHT22;38043;53.224;6.580;2022-08-18T15:00:38;23.20;99.90
52030;DHT22;38043;53.224;6.580;2022-08-18T15:03:04;23.10;99.90
52030;DHT22;38043;53.224;6.580;2022-08-18T15:05:32;23.20;99.90
52030;DHT22;38043;53.224;6.580;2022-08-18T15:07:59;23.30;99.90
52030;DHT22;38043;53.224;6.580;2022-08-18T15:10:27;23.20;99.90
52030;DHT22;38043;53.224;6.580;2022-08-18T15:12:53;23.10;99.90
52030;DHT22;38043;53.224;6.580;2022-08-18T15:15:18;22.90;99.90
52030;DHT22;38043;53.224;6.580;2022-08-18T15:17:45;22.70;99.90
52030;DHT22;38043;53.224;6.580;2022-08-18T15:20:11;22.70;99.90
52030;DHT22;38043;53.224;6.580;2022-08-18T15:22:39;22.60;99.90
52030;DHT22;38043;53.224;6.580;2022-08-18T15:25:24;22.50;99.90
52030;DHT22;38043;53.224;6.580;2022-08-18T15:28:21;22.60;99.90
52030;DHT22;38043;53.224;6.580;2022-08-18T15:30:49;22.60;99.90
52030;DHT22;38043;53.224;6.580;2022-08-18T15:33:16;22.50;99.90
52030;DHT22;38043;53.224;6.580;2022-08-18T15:35:44;22.40;99.90
52030;DHT22;38043;53.224;6.580;2022-08-18T15:38:12;22.30;99.90
52030;DHT22;38043;53.224;6.580;2022-08-18T15:40:56;22.20;99.90
52030;DHT22;38043;53.224;6.580;2022-08-18T15:43:30;22.10;99.90
52030;DHT22;38043;53.224;6.580;2022-08-18T15:45:57;21.90;99.90
52030;DHT22;38043;53.224;6.580;2022-08-18T15:48:25;21.90;99.90
52030;DHT22;38043;53.224;6.580;2022-08-18T15:50:51;21.80;99.90
52030;DHT22;38043;53.224;6.580;2022-08-18T15:53:25;21.80;99.90
52030;DHT22;38043;53.224;6.580;2022-08-18T15:55:51;21.80;99.90
52030;DHT22;38043;53.224;6.580;2022-08-18T15:58:17;21.80;99.90
52030;DHT22;38043;53.224;6.580;2022-08-18T16:00:45;21.80;99.90
52030;DHT22;38043;53.224;6.580;2022-08-18T16:03:14;21.80;99.90
52030;DHT22;38043;53.224;6.580;2022-08-18T16:05:52;21.70;99.90
52030;DHT22;38043;53.224;6.580;2022-08-18T16:08:19;21.70;99.90
52030;DHT22;38043;53.224;6.580;2022-08-18T16:10:45;21.60;99.90
52030;DHT22;38043;53.224;6.580;2022-08-18T16:13:11;21.50;99.90
52030;DHT22;38043;53.224;6.580;2022-08-18T16:15:41;21.50;99.90
52030;DHT22;38043;53.224;6.580;2022-08-18T16:18:11;21.40;99.90
52030;DHT22;38043;53.224;6.580;2022-08-18T16:20:36;21.40;99.90
52030;DHT22;38043;53.224;6.580;2022-08-18T16:23:02;21.40;99.90
52030;DHT22;38043;53.224;6.580;2022-08-18T16:25:31;21.30;99.90
52030;DHT22;38043;53.224;6.580;2022-08-18T16:27:58;21.20;99.90
52030;DHT22;38043;53.224;6.580;2022-08-18T16:30:26;21.20;99.90
52030;DHT22;38043;53.224;6.580;2022-08-18T16:32:53;21.10;99.90
52030;DHT22;38043;53.224;6.580;2022-08-18T16:35:20;21.10;99.90
52030;DHT22;38043;53.224;6.580;2022-08-18T16:37:46;21.10;99.90
52030;DHT22;38043;53.224;6.580;2022-08-18T16:40:15;21.10;99.90
52030;DHT22;38043;53.224;6.580;2022-08-18T16:42:41;21.10;99.90
52030;DHT22;38043;53.224;6.580;2022-08-18T16:45:07;21.10;99.90
52030;DHT22;38043;53.224;6.580;2022-08-18T16:47:34;21.00;99.90
52030;DHT22;38043;53.224;6.580;2022-08-18T16:50:10;20.90;99.90
52030;DHT22;38043;53.224;6.580;2022-08-18T16:52:36;20.80;99.90
52030;DHT22;38043;53.224;6.580;2022-08-18T16:55:04;20.80;99.90
52030;DHT22;38043;53.224;6.580;2022-08-18T16:57:31;20.80;99.90
52030;DHT22;38043;53.224;6.580;2022-08-18T17:00:15;20.70;99.90
52030;DHT22;38043;53.224;6.580;2022-08-18T17:03:07;20.80;99.90
52030;DHT22;38043;53.224;6.580;2022-08-18T17:06:02;20.80;99.90
52030;DHT22;38043;53.224;6.580;2022-08-18T17:08:29;20.70;99.90
52030;DHT22;38043;53.224;6.580;2022-08-18T17:11:08;20.70;99.90
52030;DHT22;38043;53.224;6.580;2022-08-18T17:13:35;20.70;99.90
52030;DHT22;38043;53.224;6.580;2022-08-18T17:16:03;20.60;99.90
52030;DHT22;38043;53.224;6.580;2022-08-18T17:18:28;20.50;99.90
52030;DHT22;38043;53.224;6.580;2022-08-18T17:20:55;20.50;99.90
52030;DHT22;38043;53.224;6.580;2022-08-18T17:23:21;20.50;99.90
52030;DHT22;38043;53.224;6.580;2022-08-18T17:25:48;20.50;99.90
52030;DHT22;38043;53.224;6.580;2022-08-18T17:28:16;20.40;99.90
52030;DHT22;38043;53.224;6.580;2022-08-18T17:30:47;20.40;99.90
52030;DHT22;38043;53.224;6.580;2022-08-18T17:33:26;20.40;99.90
52030;DHT22;38043;53.224;6.580;2022-08-18T17:35:55;20.30;99.90
52030;DHT22;38043;53.224;6.580;2022-08-18T17:38:25;20.30;99.90
52030;DHT22;38043;53.224;6.580;2022-08-18T17:40:54;20.20;99.90
52030;DHT22;38043;53.224;6.580;2022-08-18T17:43:23;20.10;99.90
52030;DHT22;38043;53.224;6.580;2022-08-18T17:46:08;20.10;99.90
52030;DHT22;38043;53.224;6.580;2022-08-18T17:48:49;19.90;99.90
52030;DHT22;38043;53.224;6.580;2022-08-18T17:51:41;20.00;99.90
52030;DHT22;38043;53.224;6.580;2022-08-18T17:56:41;19.90;99.90
52030;DHT22;38043;53.224;6.580;2022-08-18T17:59:12;19.80;99.90
52030;DHT22;38043;53.224;6.580;2022-08-18T18:01:39;19.80;99.90
52030;DHT22;38043;53.224;6.580;2022-08-18T18:04:07;19.70;99.90
52030;DHT22;38043;53.224;6.580;2022-08-18T18:09:10;19.70;99.90
52030;DHT22;38043;53.224;6.580;2022-08-18T18:11:42;19.70;99.90
52030;DHT22;38043;53.224;6.580;2022-08-18T18:17:13;19.60;99.90
52030;DHT22;38043;53.224;6.580;2022-08-18T18:19:40;19.60;99.90
52030;DHT22;38043;53.224;6.580;2022-08-18T18:22:22;19.50;99.90